Detalii statie PETRESTI PETRESTI [0000197D]

Toti senzorii

Date Temperatura solului [C]Precipitatii [mm]Voltaj baterie [mV]Leaf Wetness [Min]HC Air temperature [C]HC Relative humidity [%]Punctul de roua [C]
medieminmaxsumaultimatimpmedieminmaxmediemediemin
2017-10-20 09:00:00 10.3 10.1 10.4 0 6806 8.05 6.56 9.45 100 8 6.5
2017-10-20 10:00:00 10.3 10.1 10.4 0 6826 11.33 9.67 13.22 87.22 9.1 8.7
2017-10-20 11:00:00 10.4 10.3 10.5 0 6942 14.66 13.5 15.63 66.47 8.3 7.9
2017-10-20 12:00:00 10.6 10.4 10.9 0 7030 16.7 15.69 17.67 64.87 9.9 8.8
2017-10-20 13:00:00 10.9 10.8 11.3 0 7216 18.76 17.87 19.48 58.52 10.3 9.7
2017-10-20 14:00:00 11.5 11.2 12 0 7216 19.88 19.51 20.18 52.25 9.6 9.3
2017-10-20 15:00:00 12.4 12 12.9 0 7216 20.42 20.14 20.54 49.64 9.3 9.1
2017-10-20 16:00:00 13.2 13 13.5 0 7226 20.23 20.06 20.51 50.2 9.3 9.2
2017-10-20 17:00:00 13.7 13.6 13.9 0 7196 19.5 18.65 20.03 53.19 9.5 9.4
2017-10-20 18:00:00 13.8 13.7 14 0 6922 16 14.04 18.38 64.19 9 8.7
2017-10-20 19:00:00 13.5 13.3 13.7 0 6844 12.41 11.77 13.74 78.27 8.6 8.2
2017-10-20 20:00:00 13 12.8 13.3 0 6834 11.27 10.83 11.98 86.16 8.9 8.4
2017-10-20 21:00:00 12.7 12.6 13 0 6834 9.26 8.21 10.93 95.14 8.3 7.1
2017-10-20 22:00:00 12.3 12.2 12.6 0 6816 8.36 8.09 8.59 99.64 8.2 8
2017-10-20 23:00:00 12 11.9 12.2 0 6816 8.4 8.03 8.77 100 8.3 8
2017-10-21 00:00:00 11.7 11.7 11.9 0 6796 8.63 8.2 9.03 100 8.5 8.2
2017-10-21 01:00:00 11.5 11.4 11.7 0 6786 7.89 7.15 8.53 100 7.8 7.1
2017-10-21 02:00:00 11.2 11.1 11.5 0 6766 6.91 6.51 7.2 100 6.8 6.5
2017-10-21 03:00:00 11 10.9 11.1 0 6756 6.71 6 7.19 100 6.6 6
2017-10-21 04:00:00 10.8 10.7 11 0 6748 5.93 5.77 6.15 100 5.8 5.7
2017-10-21 05:00:00 10.5 10.4 10.8 0 6738 5.64 5.45 5.93 100 5.5 5.4
2017-10-21 06:00:00 10.4 10.3 10.5 0 6738 5.22 4.8 6 100 5.1 4.8
2017-10-21 07:00:00 10.2 10.1 10.4 0 6748 4.82 4.63 5.09 100 4.7 4.6
2017-10-21 08:00:00 10 9.9 10.2 0 6756 5.02 4.53 6.16 100 4.9 4.5
2017-10-21 09:00:00 9.9 9.7 10.2 0 6806 7.96 6.48 9.62 100 7.9 6.4
2017-10-21 10:00:00 10 9.9 10.2 0 6894 11.55 10.01 13.85 96.13 10.8 10
2017-10-21 11:00:00 10.2 10 10.5 0 6962 14.84 14.36 15.22 66.34 8.3 6.9
2017-10-21 12:00:00 10.7 10.4 11 0 7050 15.17 14.77 15.77 62.2 7.8 7.5
2017-10-21 13:00:00 11.1 10.9 11.3 0 7166 15.91 15.67 16.33 61.46 8.3 8
2017-10-21 14:00:00 11.5 11.3 11.9 0 7128 16.82 16.57 16.95 59.5 8.7 8.5
2017-10-21 15:00:00 12.1 11.9 12.3 0 7050 16.63 16.25 16.83 60.94 8.9 8.7
2017-10-21 16:00:00 12.3 12.3 12.5 0 6972 15.55 15.13 16.14 65.33 8.9 8.8
2017-10-21 17:00:00 12.3 12.3 12.6 0 6914 14.69 13.92 15.13 69.84 9 8.8
2017-10-21 18:00:00 12.3 12.3 12.4 0.8 6874 12.3 11.64 13.69 93.28 11.1 9.3
2017-10-21 19:00:00 12.3 12.2 12.4 0.2 6854 11.51 11.22 11.68 100 11.4 11.2
2017-10-21 20:00:00 12.1 12.1 12.3 0 6826 11.17 11.02 11.34 100 11.1 11
2017-10-21 21:00:00 12 11.9 12.2 0 6826 10.83 10.66 11.01 100 10.8 10.6
2017-10-21 22:00:00 11.9 11.9 12.1 0 6786 10.46 10.29 10.66 100 10.4 10.2
2017-10-21 23:00:00 11.7 11.7 11.9 0 6796 9.99 9.75 10.28 100 9.9 9.7
2017-10-22 00:00:00 11.6 11.6 11.8 0 6776 9.9 9.82 9.97 100 9.8 9.8
2017-10-22 01:00:00 11.6 11.5 11.8 0 6776 9.95 9.89 9.99 100 9.8 9.8
2017-10-22 02:00:00 11.5 11.4 11.6 0 6776 9.95 9.87 10.02 100 9.9 9.8
2017-10-22 03:00:00 11.4 11.3 11.6 0 6766 9.76 9.62 9.98 100 9.7 9.6
2017-10-22 04:00:00 11.4 11.3 11.5 0 6748 9.28 8.64 9.5 100 9.2 8.6
2017-10-22 05:00:00 11.3 11.2 11.5 0 6756 9.22 8.62 9.73 100 9.1 8.6
2017-10-22 06:00:00 11.2 11.1 11.4 0 6748 9.1 8.88 9.32 100 9 8.8
2017-10-22 07:00:00 11.2 11.1 11.3 0 6748 9.19 9.11 9.32 100 9.1 9.1